Map

Track Data

SID SEASON NUMBER BASIN SUBBASIN NAME ISO_TIME NATURE LAT LON WMO_WIND WMO_PRES WMO_AGENCY TRACK_TYPE DIST2LAND LANDFALL IFLAG USA_AGENCY USA_ATCF_ID USA_LAT USA_LON USA_RECORD USA_STATUS USA_WIND USA_PRES USA_SSHS USA_R34_NE USA_R34_SE USA_R34_SW USA_R34_NW USA_R50_NE USA_R50_SE USA_R50_SW USA_R50_NW USA_R64_NE USA_R64_SE USA_R64_SW USA_R64_NW USA_POCI USA_ROCI USA_RMW USA_EYE TOKYO_LAT TOKYO_LON TOKYO_GRADE TOKYO_WIND TOKYO_PRES TOKYO_R50_DIR TOKYO_R50_LONG TOKYO_R50_SHORT TOKYO_R30_DIR TOKYO_R30_LONG TOKYO_R30_SHORT TOKYO_LAND CMA_LAT CMA_LON CMA_CAT CMA_WIND CMA_PRES HKO_LAT HKO_LON HKO_CAT HKO_WIND HKO_PRES NEWDELHI_LAT NEWDELHI_LON NEWDELHI_GRADE NEWDELHI_WIND NEWDELHI_PRES NEWDELHI_CI NEWDELHI_DP NEWDELHI_POCI REUNION_LAT REUNION_LON REUNION_TYPE REUNION_WIND REUNION_PRES REUNION_TNUM REUNION_CI REUNION_RMW REUNION_R34_NE REUNION_R34_SE REUNION_R34_SW REUNION_R34_NW REUNION_R50_NE REUNION_R50_SE REUNION_R50_SW REUNION_R50_NW REUNION_R64_NE REUNION_R64_SE REUNION_R64_SW REUNION_R64_NW BOM_LAT BOM_LON BOM_TYPE BOM_WIND BOM_PRES BOM_TNUM BOM_CI BOM_RMW BOM_R34_NE BOM_R34_SE BOM_R34_SW BOM_R34_NW BOM_R50_NE BOM_R50_SE BOM_R50_SW BOM_R50_NW BOM_R64_NE BOM_R64_SE BOM_R64_SW BOM_R64_NW BOM_ROCI BOM_POCI BOM_EYE BOM_POS_METHOD BOM_PRES_METHOD NADI_LAT NADI_LON NADI_CAT NADI_WIND NADI_PRES WELLINGTON_LAT WELLINGTON_LON WELLINGTON_WIND WELLINGTON_PRES DS824_LAT DS824_LON DS824_STAGE DS824_WIND DS824_PRES TD9636_LAT TD9636_LON TD9636_STAGE TD9636_WIND TD9636_PRES TD9635_LAT TD9635_LON TD9635_WIND TD9635_PRES TD9635_ROCI NEUMANN_LAT NEUMANN_LON NEUMANN_CLASS NEUMANN_WIND NEUMANN_PRES MLC_LAT MLC_LON MLC_CLASS MLC_WIND MLC_PRES USA_GUST BOM_GUST BOM_GUST_PER REUNION_GUST REUNION_GUST_PER USA_SEAHGT USA_SEARAD_NE USA_SEARAD_SE USA_SEARAD_SW USA_SEARAD_NW STORM_SPEED STORM_DIR
1979258N20273 1979 88 NA CS HENRI 1979-09-15 00:00:00 TS 20.3000 -86.8000 25 1003 hurdat_atl main 53 10 O_____________ hurdat_atl AL151979 20.3000 -86.8000 TD 25 1003 -1 12 0
1979258N20273 1979 88 NA CS HENRI 1979-09-15 03:00:00 TS 20.8951 -86.8252 main 10 0 P_____________ AL151979 20.8951 -86.8252 TD 25 1003 -1 12 355
1979258N20273 1979 88 NA CS HENRI 1979-09-15 06:00:00 TS 21.5000 -86.9000 25 1003 hurdat_atl main 10 10 O_____________ hurdat_atl AL151979 21.5000 -86.9000 TD 25 1003 -1 12 349
1979258N20273 1979 88 NA GM HENRI 1979-09-15 09:00:00 TS 22.0897 -87.0746 main 67 67 P_____________ AL151979 22.0897 -87.0746 TD 27 1003 -1 11 335
1979258N20273 1979 88 NA GM HENRI 1979-09-15 12:00:00 TS 22.5000 -87.4000 30 1003 hurdat_atl main 116 113 O_____________ hurdat_atl AL151979 22.5000 -87.4000 TD 30 1003 -1 9 303
1979258N20273 1979 88 NA GM HENRI 1979-09-15 15:00:00 TS 22.5751 -87.8980 main 122 111 P_____________ AL151979 22.5751 -87.8980 TD 30 1003 -1 10 270
1979258N20273 1979 88 NA GM HENRI 1979-09-15 18:00:00 TS 22.5000 -88.5000 30 1003 hurdat_atl main 111 111 O_____________ hurdat_atl AL151979 22.5000 -88.5000 TD 30 1003 -1 11 266
1979258N20273 1979 88 NA GM HENRI 1979-09-15 21:00:00 TS 22.4998 -89.0850 main 123 123 P_____________ AL151979 22.4998 -89.0850 TD 30 1003 -1 11 270
1979258N20273 1979 88 NA GM HENRI 1979-09-16 00:00:00 TS 22.5000 -89.7000 30 1003 hurdat_atl main 140 140 O_____________ hurdat_atl AL151979 22.5000 -89.7000 TD 30 1003 -1 12 271
1979258N20273 1979 88 NA GM HENRI 1979-09-16 03:00:00 TS 22.5299 -90.3496 main 151 151 P_____________ AL151979 22.5299 -90.3496 TD 30 1002 -1 12 270
1979258N20273 1979 88 NA GM HENRI 1979-09-16 06:00:00 TS 22.5000 -91.0000 30 1002 hurdat_atl main 172 172 O_____________ hurdat_atl AL151979 22.5000 -91.0000 TD 30 1002 -1 12 262
1979258N20273 1979 88 NA GM HENRI 1979-09-16 09:00:00 TS 22.3599 -91.6300 main 197 197 P_____________ AL151979 22.3599 -91.6300 TD 32 1001 -1 12 250
1979258N20273 1979 88 NA GM HENRI 1979-09-16 12:00:00 TS 22.1000 -92.2000 35 1001 hurdat_atl main 225 225 O_____________ hurdat_atl AL151979 22.1000 -92.2000 TS 35 1001 0 12 239
1979258N20273 1979 88 NA GM HENRI 1979-09-16 15:00:00 TS 21.7524 -92.7025 main 260 257 P_____________ AL151979 21.7524 -92.7025 TS 40 1000 0 12 226
1979258N20273 1979 88 NA GM HENRI 1979-09-16 18:00:00 TS 21.3000 -93.1000 45 999 hurdat_atl main 284 246 O_____________ hurdat_atl AL151979 21.3000 -93.1000 TS 45 999 0 12 211
1979258N20273 1979 88 NA GM HENRI 1979-09-16 21:00:00 TS 20.6898 -93.3876 main 246 202 P_____________ AL151979 20.6898 -93.3876 TS 50 997 0 12 203
1979258N20273 1979 88 NA GM HENRI 1979-09-17 00:00:00 TS 20.2000 -93.6000 55 995 hurdat_atl main 202 192 O_____________ hurdat_atl AL151979 20.2000 -93.6000 TS 55 995 0 7 214
1979258N20273 1979 88 NA GM HENRI 1979-09-17 03:00:00 TS 20.1025 -93.8147 main 201 201 P_____________ AL151979 20.1025 -93.8147 TS 60 992 0 4 270
1979258N20273 1979 88 NA GM HENRI 1979-09-17 06:00:00 TS 20.2000 -94.0000 65 990 hurdat_atl main 207 202 O_____________ hurdat_atl AL151979 20.2000 -94.0000 HU 65 990 1 4 298
1979258N20273 1979 88 NA GM HENRI 1979-09-17 09:00:00 TS 20.2700 -94.1575 main 207 202 P_____________ AL151979 20.2700 -94.1575 HU 70 986 1 3 305
1979258N20273 1979 88 NA GM HENRI 1979-09-17 12:00:00 TS 20.4000 -94.3000 75 983 hurdat_atl main 212 212 O_____________ hurdat_atl AL151979 20.4000 -94.3000 HU 75 983 1 4 321
1979258N20273 1979 88 NA GM HENRI 1979-09-17 15:00:00 TS 20.6075 -94.4425 main 222 212 P_____________ AL151979 20.6075 -94.4425 HU 72 983 1 5 325
1979258N20273 1979 88 NA GM HENRI 1979-09-17 18:00:00 TS 20.8000 -94.6000 70 984 hurdat_atl main 212 200 O_____________ hurdat_atl AL151979 20.8000 -94.6000 HU 70 984 1 4 309
1979258N20273 1979 88 NA GM HENRI 1979-09-17 21:00:00 TS 20.8725 -94.7926 main 200 183 P_____________ AL151979 20.8725 -94.7926 HU 67 988 1 4 285
1979258N20273 1979 88 NA GM HENRI 1979-09-18 00:00:00 TS 20.9000 -95.0000 65 992 hurdat_atl main 183 167 O_____________ hurdat_atl AL151979 20.9000 -95.0000 HU 65 992 1 4 280
1979258N20273 1979 88 NA GM HENRI 1979-09-18 03:00:00 TS 20.9425 -95.2075 main 167 160 P_____________ AL151979 20.9425 -95.2075 HU 62 994 0 4 285
1979258N20273 1979 88 NA GM HENRI 1979-09-18 06:00:00 TS 21.0000 -95.4000 60 997 hurdat_atl main 160 152 O_____________ hurdat_atl AL151979 21.0000 -95.4000 TS 60 997 0 4 291
1979258N20273 1979 88 NA GM HENRI 1979-09-18 09:00:00 TS 21.0775 -95.5800 main 152 144 P_____________ AL151979 21.0775 -95.5800 TS 55 998 0 3 305
1979258N20273 1979 88 NA GM HENRI 1979-09-18 12:00:00 TS 21.2000 -95.7000 50 1000 hurdat_atl main 152 152 O_____________ hurdat_atl AL151979 21.2000 -95.7000 TS 50 1000 0 4 339
1979258N20273 1979 88 NA GM HENRI 1979-09-18 15:00:00 TS 21.4225 -95.7226 main 166 165 P_____________ AL151979 21.4225 -95.7226 TS 45 1000 0 4 0
1979258N20273 1979 88 NA GM HENRI 1979-09-18 18:00:00 TS 21.6000 -95.7000 40 1000 hurdat_atl main 165 165 O_____________ hurdat_atl AL151979 21.6000 -95.7000 TS 40 1000 0 2 0
1979258N20273 1979 88 NA GM HENRI 1979-09-18 21:00:00 TS 21.5950 -95.7075 main 165 165 P_____________ AL151979 21.5950 -95.7075 TS 40 1000 0 1 0
1979258N20273 1979 88 NA GM HENRI 1979-09-19 00:00:00 TS 21.5000 -95.7000 40 1000 hurdat_atl main 165 165 O_____________ hurdat_atl AL151979 21.5000 -95.7000 TS 40 1000 0 2 171
1979258N20273 1979 88 NA GM HENRI 1979-09-19 03:00:00 TS 21.4075 -95.6575 main 166 166 P_____________ AL151979 21.4075 -95.6575 TS 37 1000 0 2 153
1979258N20273 1979 88 NA GM HENRI 1979-09-19 06:00:00 TS 21.3000 -95.6000 35 1001 hurdat_atl main 167 159 O_____________ hurdat_atl AL151979 21.3000 -95.6000 TS 35 1001 0 2 156
1979258N20273 1979 88 NA GM HENRI 1979-09-19 09:00:00 TS 21.1850 -95.5575 main 159 159 P_____________ AL151979 21.1850 -95.5575 TS 35 1002 0 2 153
1979258N20273 1979 88 NA GM HENRI 1979-09-19 12:00:00 TS 21.1000 -95.5000 35 1003 hurdat_atl main 160 160 O_____________ hurdat_atl AL151979 21.1000 -95.5000 TS 35 1003 0 2 129
1979258N20273 1979 88 NA GM HENRI 1979-09-19 15:00:00 TS 21.0850 -95.4225 main 167 167 P_____________ AL151979 21.0850 -95.4225 TS 32 1004 -1 2 90
1979258N20273 1979 88 NA GM HENRI 1979-09-19 18:00:00 TS 21.1000 -95.3000 30 1005 hurdat_atl main 175 175 O_____________ hurdat_atl AL151979 21.1000 -95.3000 TD 30 1005 -1 3 87
1979258N20273 1979 88 NA GM HENRI 1979-09-19 21:00:00 TS 21.1000 -95.1150 main 190 190 P_____________ AL151979 21.1000 -95.1150 TD 30 1005 -1 4 90
1979258N20273 1979 88 NA GM HENRI 1979-09-20 00:00:00 TS 21.1000 -94.9000 30 1005 hurdat_atl main 205 205 O_____________ hurdat_atl AL151979 21.1000 -94.9000 TD 30 1005 -1 4 91
1979258N20273 1979 88 NA GM HENRI 1979-09-20 03:00:00 TS 21.0925 -94.6925 main 222 222 P_____________ AL151979 21.0925 -94.6925 TD 30 1005 -1 4 90
1979258N20273 1979 88 NA GM HENRI 1979-09-20 06:00:00 TS 21.1000 -94.5000 30 1005 hurdat_atl main 239 239 O_____________ hurdat_atl AL151979 21.1000 -94.5000 TD 30 1005 -1 3 80
1979258N20273 1979 88 NA GM HENRI 1979-09-20 09:00:00 TS 21.1499 -94.3575 main 247 247 P_____________ AL151979 21.1499 -94.3575 TD 30 1005 -1 3 70
1979258N20273 1979 88 NA GM HENRI 1979-09-20 12:00:00 TS 21.2000 -94.2000 30 1006 hurdat_atl main 271 271 O_____________ hurdat_atl AL151979 21.2000 -94.2000 TD 30 1006 -1 4 84
1979258N20273 1979 88 NA GM HENRI 1979-09-20 15:00:00 TS 21.1926 -93.9499 main 298 298 P_____________ AL151979 21.1926 -93.9499 TD 30 1006 -1 5 90
1979258N20273 1979 88 NA GM HENRI 1979-09-20 18:00:00 TS 21.2000 -93.7000 30 1006 hurdat_atl main 309 305 O_____________ hurdat_atl AL151979 21.2000 -93.7000 TD 30 1006 -1 4 78
1979258N20273 1979 88 NA GM HENRI 1979-09-20 21:00:00 TS 21.2774 -93.5350 main 313 313 P_____________ AL151979 21.2774 -93.5350 TD 30 1006 -1 3 55
1979258N20273 1979 88 NA GM HENRI 1979-09-21 00:00:00 TS 21.4000 -93.4000 30 1006 hurdat_atl main 317 310 O_____________ hurdat_atl AL151979 21.4000 -93.4000 TD 30 1006 -1 4 44
1979258N20273 1979 88 NA GM HENRI 1979-09-21 03:00:00 TS 21.5425 -93.2575 main 310 297 P_____________ AL151979 21.5425 -93.2575 TD 30 1006 -1 4 43
1979258N20273 1979 88 NA GM HENRI 1979-09-21 06:00:00 TS 21.7000 -93.1000 30 1007 hurdat_atl main 297 280 O_____________ hurdat_atl AL151979 21.7000 -93.1000 TD 30 1007 -1 4 47
1979258N20273 1979 88 NA GM HENRI 1979-09-21 09:00:00 TS 21.8500 -92.9075 main 283 267 P_____________ AL151979 21.8500 -92.9075 TD 30 1007 -1 5 51
1979258N20273 1979 88 NA GM HENRI 1979-09-21 12:00:00 TS 22.0000 -92.7000 30 1008 hurdat_atl main 267 253 O_____________ hurdat_atl AL151979 22.0000 -92.7000 TD 30 1008 -1 5 53
1979258N20273 1979 88 NA GM HENRI 1979-09-21 15:00:00 TS 22.1500 -92.4850 main 258 246 P_____________ AL151979 22.1500 -92.4850 TD 30 1008 -1 5 51
1979258N20273 1979 88 NA GM HENRI 1979-09-21 18:00:00 TS 22.3000 -92.3000 30 1009 hurdat_atl main 246 244 O_____________ hurdat_atl AL151979 22.3000 -92.3000 TD 30 1009 -1 4 42
1979258N20273 1979 88 NA GM HENRI 1979-09-21 21:00:00 TS 22.4424 -92.1999 main 244 242 P_____________ AL151979 22.4424 -92.1999 TD 27 1009 -1 4 31
1979258N20273 1979 88 NA GM HENRI 1979-09-22 00:00:00 TS 22.6000 -92.1000 25 1010 hurdat_atl main 250 250 O_____________ hurdat_atl AL151979 22.6000 -92.1000 TD 25 1010 -1 5 38
1979258N20273 1979 88 NA GM HENRI 1979-09-22 03:00:00 TS 22.8001 -91.9001 main 251 247 P_____________ AL151979 22.8001 -91.9001 TD 22 1010 -1 5 43
1979258N20273 1979 88 NA GM HENRI 1979-09-22 06:00:00 TS 23.0000 -91.7000 20 1011 hurdat_atl main 256 256 O_____________ hurdat_atl AL151979 23.0000 -91.7000 TD 20 1011 -1 4 38
1979258N20273 1979 88 NA GM HENRI 1979-09-22 09:00:00 TS 23.1424 -91.6073 main 260 260 P_____________ AL151979 23.1424 -91.6073 TD 20 1011 -1 4 31
1979258N20273 1979 88 NA GM HENRI 1979-09-22 12:00:00 TS 23.3000 -91.5000 20 1011 hurdat_atl main 275 275 O_____________ hurdat_atl AL151979 23.3000 -91.5000 TD 20 1011 -1 5 38
1979258N20273 1979 88 NA GM HENRI 1979-09-22 15:00:00 TS 23.5350 -91.2726 main 287 287 P_____________ AL151979 23.5350 -91.2726 TD 20 1011 -1 7 43
1979258N20273 1979 88 NA GM HENRI 1979-09-22 18:00:00 TS 23.8000 -91.0000 20 1011 hurdat_atl main 310 310 O_____________ hurdat_atl AL151979 23.8000 -91.0000 TD 20 1011 -1 7 43
1979258N20273 1979 88 NA GM HENRI 1979-09-22 21:00:00 TS 24.0500 -90.7425 main 323 323 P_____________ AL151979 24.0500 -90.7425 TD 20 1011 -1 7 42
1979258N20273 1979 88 NA GM HENRI 1979-09-23 00:00:00 TS 24.3000 -90.5000 20 1011 hurdat_atl main 351 351 O_____________ hurdat_atl AL151979 24.3000 -90.5000 TD 20 1011 -1 6 39
1979258N20273 1979 88 NA GM HENRI 1979-09-23 03:00:00 TS 24.5499 -90.2998 main 371 371 P_____________ AL151979 24.5499 -90.2998 TD 20 1011 -1 6 36
1979258N20273 1979 88 NA GM HENRI 1979-09-23 06:00:00 TS 24.8000 -90.1000 20 1011 hurdat_atl main 399 399 O_____________ hurdat_atl AL151979 24.8000 -90.1000 TD 20 1011 -1 7 36
1979258N20273 1979 88 NA GM HENRI 1979-09-23 09:00:00 TS 25.0799 -89.8801 main 423 416 P_____________ AL151979 25.0799 -89.8801 TD 20 1011 -1 7 42
1979258N20273 1979 88 NA GM HENRI 1979-09-23 12:00:00 TS 25.3000 -89.6000 20 1011 hurdat_atl main 416 402 O_____________ hurdat_atl AL151979 25.3000 -89.6000 TD 20 1011 -1 7 64
1979258N20273 1979 88 NA GM HENRI 1979-09-23 15:00:00 TS 25.3725 -89.2222 main 402 402 P_____________ AL151979 25.3725 -89.2222 TD 20 1011 -1 7 82
1979258N20273 1979 88 NA GM HENRI 1979-09-23 18:00:00 TS 25.4000 -88.8000 20 1011 hurdat_atl main 403 395 O_____________ hurdat_atl AL151979 25.4000 -88.8000 TD 20 1011 -1 8 82
1979258N20273 1979 88 NA GM HENRI 1979-09-23 21:00:00 TS 25.4774 -88.3924 main 396 392 P_____________ AL151979 25.4774 -88.3924 TD 20 1011 -1 7 75
1979258N20273 1979 88 NA GM HENRI 1979-09-24 00:00:00 TS 25.6000 -88.0000 20 1011 hurdat_atl main 394 383 O_____________ hurdat_atl AL151979 25.6000 -88.0000 TD 20 1011 -1 7 66
1979258N20273 1979 88 NA GM HENRI 1979-09-24 03:00:00 TS 25.7849 -87.6350 main 386 374 P_____________ AL151979 25.7849 -87.6350 TD 20 1011 -1 7 58
1979258N20273 1979 88 NA GM HENRI 1979-09-24 06:00:00 TS 26.0000 -87.3000 20 1011 hurdat_atl main 379 369 O_____________ hurdat_atl AL151979 26.0000 -87.3000 TD 20 1011 -1 7 54
1979258N20273 1979 88 NA GM HENRI 1979-09-24 09:00:00 TS 26.2051 -86.9926 main 374 368 P_____________ AL151979 26.2051 -86.9926 TD 20 1011 -1 7 53
1979258N20273 1979 88 NA GM HENRI 1979-09-24 12:00:00 ET 26.4000 -86.7000 20 1011 hurdat_atl main 374 O_____________ hurdat_atl AL151979 26.4000 -86.7000 EX 20 1011 -4 7 53

About IBTrACS Database

This database is a web-friendly format of International Best Track Archive for Climate Stewardship (IBTrACS), a global best track data archive curated by NOAA dating back to 1842.

Updated: 2021-11-26